createdAt,value
2018-04-13T00:00:32.673Z,25.83
2018-04-13T00:03:00.913Z,26.33
2018-04-13T00:05:28.674Z,25.90
2018-04-13T00:07:56.245Z,26.07
2018-04-13T00:10:23.789Z,26.73
2018-04-13T00:12:51.317Z,25.57
2018-04-13T00:15:18.925Z,25.37
2018-04-13T00:17:46.585Z,24.63
2018-04-13T00:20:14.251Z,25.43
2018-04-13T00:22:41.907Z,25.37
2018-04-13T00:25:09.528Z,25.77
2018-04-13T00:27:37.071Z,24.97
2018-04-13T00:30:04.604Z,25.97
2018-04-13T00:32:32.252Z,24.80
2018-04-13T00:35:01.927Z,24.67
2018-04-13T00:37:31.908Z,26.33
2018-04-13T00:40:00.534Z,26.33
2018-04-13T00:42:28.072Z,26.13
2018-04-13T00:44:55.632Z,27.33
2018-04-13T00:47:23.196Z,27.37
2018-04-13T00:49:50.880Z,26.50
2018-04-13T00:52:18.510Z,27.37
2018-04-13T00:54:46.195Z,27.57
2018-04-13T00:57:14.808Z,27.40
2018-04-13T00:59:42.530Z,28.17
2018-04-13T01:02:10.097Z,27.07
2018-04-13T01:04:37.631Z,27.27
2018-04-13T01:07:05.312Z,27.60
2018-04-13T01:09:33.748Z,27.03
2018-04-13T01:12:01.309Z,26.03
2018-04-13T01:14:29.520Z,25.83
2018-04-13T01:16:57.068Z,27.30
2018-04-13T01:19:24.604Z,25.80
2018-04-13T01:21:52.143Z,26.37
2018-04-13T01:24:19.783Z,25.33
2018-04-13T01:26:48.131Z,26.60
2018-04-13T01:29:16.984Z,27.23
2018-04-13T01:31:45.303Z,26.87
2018-04-13T01:34:12.911Z,25.63
2018-04-13T01:36:40.521Z,26.90
2018-04-13T01:39:08.184Z,26.83
2018-04-13T01:41:35.816Z,26.73
2018-04-13T01:44:03.920Z,27.33
2018-04-13T01:46:32.364Z,26.33
2018-04-13T01:49:00.791Z,26.57
2018-04-13T01:51:28.345Z,27.07
2018-04-13T01:53:55.863Z,26.43
2018-04-13T01:56:23.416Z,27.20
2018-04-13T01:58:52.091Z,26.27
2018-04-13T02:01:20.953Z,25.63
2018-04-13T02:03:51.899Z,26.27
2018-04-13T02:06:25.979Z,26.67
2018-04-13T02:08:57.073Z,25.80
2018-04-13T02:11:24.652Z,25.13
2018-04-13T02:13:52.307Z,24.43
2018-04-13T02:16:19.987Z,24.97
2018-04-13T02:18:48.516Z,24.80
2018-04-13T02:21:17.842Z,24.77
2018-04-13T02:23:45.435Z,24.70
2018-04-13T02:26:12.969Z,27.53
2018-04-13T02:28:40.532Z,25.13
2018-04-13T02:31:08.059Z,25.90
2018-04-13T02:33:35.919Z,26.27
2018-04-13T02:36:03.952Z,24.43
2018-04-13T02:38:32.502Z,25.93
2018-04-13T02:41:00.786Z,26.63
2018-04-13T02:43:28.343Z,26.07
2018-04-13T02:45:55.888Z,25.30
2018-04-13T02:48:23.514Z,26.03
2018-04-13T02:50:51.124Z,26.07
2018-04-13T02:53:18.734Z,26.23
2018-04-13T02:55:46.467Z,25.90
2018-04-13T02:58:14.211Z,27.03
2018-04-13T03:00:41.860Z,26.67
2018-04-13T03:03:09.396Z,26.73
2018-04-13T03:05:36.941Z,26.27
2018-04-13T03:08:05.512Z,26.97
2018-04-13T03:10:33.876Z,26.57
2018-04-13T03:13:01.461Z,28.43
2018-04-13T03:15:29.950Z,28.17
2018-04-13T03:17:57.515Z,27.93
2018-04-13T03:20:25.064Z,27.10
2018-04-13T03:22:52.580Z,27.17
2018-04-13T03:25:21.028Z,27.43
2018-04-13T03:27:49.989Z,26.57
2018-04-13T03:30:17.584Z,28.07
2018-04-13T03:32:45.874Z,28.17
2018-04-13T03:35:13.391Z,28.50
2018-04-13T03:37:40.973Z,29.67
2018-04-13T03:40:08.523Z,29.33
2018-04-13T03:42:36.963Z,29.17
2018-04-13T03:45:06.229Z,27.90
2018-04-13T03:47:34.608Z,28.13
2018-04-13T03:50:03.902Z,28.53
2018-04-13T03:52:31.523Z,28.57
2018-04-13T03:54:59.093Z,27.67
2018-04-13T03:57:26.739Z,30.50
2018-04-13T03:59:54.377Z,29.63
2018-04-13T04:02:22.130Z,28.53
2018-04-13T04:04:51.851Z,27.77
2018-04-13T04:07:20.397Z,28.43
2018-04-13T04:09:48.019Z,29.87
2018-04-13T04:12:15.583Z,30.40
2018-04-13T04:14:43.150Z,29.17
2018-04-13T04:17:10.805Z,28.83
2018-04-13T04:19:52.122Z,29.07
2018-04-13T04:22:32.001Z,28.53
2018-04-13T04:25:11.458Z,30.70
2018-04-13T04:27:38.980Z,28.80
2018-04-13T04:30:06.580Z,28.90
2018-04-13T04:32:34.192Z,28.57
2018-04-13T04:35:01.830Z,27.57
2018-04-13T04:37:30.383Z,27.60
2018-04-13T04:39:58.064Z,29.07
2018-04-13T04:42:25.775Z,27.30
2018-04-13T04:44:53.331Z,29.67
2018-04-13T04:47:22.540Z,30.13
2018-04-13T04:49:50.153Z,30.03
2018-04-13T04:52:17.761Z,31.07
2018-04-13T04:54:46.408Z,30.10
2018-04-13T04:57:15.465Z,30.80
2018-04-13T04:59:43.075Z,29.93
2018-04-13T05:02:10.603Z,30.97
2018-04-13T05:04:38.124Z,30.97
2018-04-13T05:07:05.796Z,30.57
2018-04-13T05:09:33.384Z,30.20
2018-04-13T05:12:02.422Z,31.27
2018-04-13T05:14:35.999Z,29.80
2018-04-13T05:17:03.551Z,31.17
2018-04-13T05:19:31.087Z,29.80
2018-04-13T05:21:58.616Z,30.00
2018-04-13T05:24:26.180Z,30.87
2018-04-13T05:26:53.772Z,30.13
2018-04-13T05:29:21.439Z,30.10
2018-04-13T05:31:49.652Z,30.70
2018-04-13T05:34:17.155Z,31.47
2018-04-13T05:36:44.679Z,31.13
2018-04-13T05:39:12.199Z,30.07
2018-04-13T05:41:39.763Z,29.93
2018-04-13T05:44:08.600Z,29.47
2018-04-13T05:46:36.942Z,29.73
2018-04-13T05:49:06.503Z,30.63
2018-04-13T05:51:34.693Z,30.50
2018-04-13T05:54:02.252Z,31.47
2018-04-13T05:56:29.813Z,32.63
2018-04-13T05:58:57.456Z,32.30
2018-04-13T06:01:26.241Z,33.40
2018-04-13T06:03:55.000Z,32.43
2018-04-13T06:06:24.878Z,31.67
2018-04-13T06:08:52.409Z,34.43
2018-04-13T06:11:19.941Z,33.97
2018-04-13T06:13:47.467Z,35.30
2018-04-13T06:16:15.072Z,33.13
2018-04-13T06:18:43.593Z,34.13
2018-04-13T06:21:12.088Z,31.77
2018-04-13T06:23:40.962Z,33.10
2018-04-13T06:26:08.728Z,31.77
2018-04-13T06:28:36.228Z,34.23
2018-04-13T06:31:03.834Z,32.57
2018-04-13T06:33:31.399Z,34.07
2018-04-13T06:35:59.829Z,33.20
2018-04-13T06:38:28.611Z,33.90
2018-04-13T06:40:56.434Z,33.23
2018-04-13T06:43:24.010Z,33.17
2018-04-13T06:45:51.532Z,34.27
2018-04-13T06:48:19.043Z,34.60
2018-04-13T06:50:46.698Z,35.10
2018-04-13T06:53:14.340Z,34.23
2018-04-13T06:55:42.839Z,34.10
2018-04-13T06:58:10.667Z,35.37
2018-04-13T07:00:38.323Z,34.97
2018-04-13T07:03:05.905Z,35.93
2018-04-13T07:05:33.529Z,37.40
2018-04-13T07:08:06.971Z,35.33
2018-04-13T07:10:39.342Z,36.17
2018-04-13T07:13:08.786Z,36.50
2018-04-13T07:15:40.604Z,36.03
2018-04-13T07:18:08.987Z,35.67
2018-04-13T07:20:36.639Z,35.23
2018-04-13T07:23:04.179Z,35.43
2018-04-13T07:25:31.780Z,34.90
2018-04-13T07:28:01.777Z,34.80
2018-04-13T07:30:32.051Z,34.13
2018-04-13T07:33:00.553Z,34.47
2018-04-13T07:35:28.088Z,35.73
2018-04-13T07:37:55.658Z,36.07
2018-04-13T07:40:23.255Z,35.50
2018-04-13T07:42:50.848Z,35.93
2018-04-13T07:45:20.281Z,37.30
2018-04-13T07:47:48.193Z,35.20
2018-04-13T07:50:16.920Z,35.93
2018-04-13T07:52:44.147Z,36.33
2018-04-13T07:55:11.695Z,34.83
2018-04-13T07:57:39.220Z,33.27
2018-04-13T08:00:06.800Z,35.13
2018-04-13T08:02:34.825Z,35.23
2018-04-13T08:05:02.798Z,34.23
2018-04-13T08:07:30.513Z,34.17
2018-04-13T08:09:58.990Z,35.63
2018-04-13T08:12:26.544Z,34.57
2018-04-13T08:14:54.092Z,34.57
2018-04-13T08:17:21.713Z,33.47
2018-04-13T08:19:49.848Z,34.27
2018-04-13T08:22:20.380Z,35.00
2018-04-13T08:24:53.059Z,35.30
2018-04-13T08:27:20.623Z,34.23
2018-04-13T08:29:48.212Z,34.30
2018-04-13T08:32:15.732Z,34.33
2018-04-13T08:34:43.322Z,33.23
2018-04-13T08:37:13.310Z,34.27
2018-04-13T08:42:46.006Z,31.27
2018-04-13T08:45:13.586Z,32.00
2018-04-13T08:47:41.155Z,33.67
2018-04-13T08:50:08.711Z,33.50
2018-04-13T08:52:42.905Z,35.33
2018-04-13T08:58:09.784Z,33.50
2018-04-13T09:00:40.632Z,32.50
2018-04-13T09:03:08.166Z,33.40
2018-04-13T09:05:35.673Z,32.60
2018-04-13T09:08:03.246Z,34.20
2018-04-13T09:10:32.952Z,32.47
2018-04-13T09:18:19.698Z,32.03
2018-04-13T09:20:47.296Z,32.23
2018-04-13T09:23:14.854Z,32.93
2018-04-13T09:25:42.431Z,31.50
2018-04-13T09:28:14.248Z,33.43
2018-04-13T09:30:46.133Z,30.37
2018-04-13T09:33:15.788Z,31.40
2018-04-13T09:35:43.359Z,30.60
2018-04-13T09:38:10.924Z,31.70
2018-04-13T09:40:38.633Z,29.20
2018-04-13T09:43:06.295Z,30.03
2018-04-13T09:45:33.980Z,28.77
2018-04-13T09:48:04.484Z,30.57
2018-04-13T09:50:36.250Z,27.60
2018-04-13T09:53:03.775Z,27.63
2018-04-13T09:55:31.324Z,27.20
2018-04-13T09:57:58.864Z,27.20
2018-04-13T10:00:30.595Z,27.00
2018-04-13T10:03:04.488Z,26.97
2018-04-13T10:05:33.097Z,26.73
2018-04-13T10:08:05.195Z,26.43
2018-04-13T10:10:32.747Z,27.67
2018-04-13T10:13:00.357Z,28.43
2018-04-13T10:15:27.984Z,29.33
2018-04-13T10:17:55.611Z,29.57
2018-04-13T10:20:24.377Z,30.03
2018-04-13T10:22:56.072Z,28.00
2018-04-13T10:25:23.741Z,28.73
2018-04-13T10:27:51.251Z,27.10
2018-04-13T10:30:18.898Z,25.23
2018-04-13T10:32:46.419Z,24.97
2018-04-13T10:35:13.988Z,25.03
2018-04-13T10:37:45.830Z,19.57
2018-04-13T10:42:49.060Z,19.63
2018-04-13T10:45:16.615Z,20.47
2018-04-13T10:47:44.246Z,20.57
2018-04-13T10:50:11.804Z,24.23
2018-04-13T10:52:39.432Z,28.27
2018-04-13T10:55:12.074Z,25.77
2018-04-13T10:57:48.355Z,28.40
2018-04-13T11:00:17.818Z,30.13
2018-04-13T11:02:45.459Z,28.83
2018-04-13T11:05:13.121Z,29.13
2018-04-13T11:07:40.667Z,28.60
2018-04-13T11:10:08.387Z,28.80
2018-04-13T11:12:41.113Z,26.93
2018-04-13T11:15:12.371Z,28.13
2018-04-13T11:17:45.997Z,27.43
2018-04-13T11:20:13.657Z,27.13
2018-04-13T11:22:41.374Z,25.43
2018-04-13T11:25:08.997Z,25.37
2018-04-13T11:27:37.760Z,25.20
2018-04-13T11:30:08.803Z,24.90
2018-04-13T11:32:43.923Z,24.00
2018-04-13T11:35:17.324Z,25.30
2018-04-13T11:37:44.930Z,23.67
2018-04-13T11:40:12.524Z,23.63
2018-04-13T11:42:40.145Z,22.57
2018-04-13T11:45:13.855Z,28.43
2018-04-13T11:47:49.047Z,28.93
2018-04-13T11:50:20.178Z,28.60
2018-04-13T11:52:50.133Z,29.00
2018-04-13T11:55:17.708Z,29.63
2018-04-13T11:57:45.269Z,27.63
2018-04-13T12:00:12.897Z,29.17
2018-04-13T12:02:46.085Z,28.60
2018-04-13T12:05:14.108Z,30.03
2018-04-13T12:07:44.451Z,30.40
2018-04-13T12:10:16.967Z,27.47
2018-04-13T12:12:44.596Z,28.33
2018-04-13T12:15:12.123Z,29.63
2018-04-13T12:17:39.653Z,30.10
2018-04-13T12:20:08.355Z,29.17
2018-04-13T12:22:37.730Z,29.00
2018-04-13T12:25:09.811Z,30.30
2018-04-13T12:27:40.255Z,29.17
2018-04-13T12:30:07.829Z,30.87
2018-04-13T12:32:35.444Z,23.53
2018-04-13T12:35:03.181Z,30.77
2018-04-13T12:37:33.105Z,31.50
2018-04-13T12:40:04.982Z,29.60
2018-04-13T12:42:36.497Z,30.37
2018-04-13T12:45:04.051Z,29.40
2018-04-13T12:47:31.623Z,30.03
2018-04-13T12:49:59.243Z,30.07
2018-04-13T12:52:26.867Z,30.00
2018-04-13T12:55:01.357Z,31.27
2018-04-13T12:57:40.731Z,30.60
2018-04-13T13:00:08.368Z,31.17
2018-04-13T13:02:36.107Z,31.20
2018-04-13T13:05:03.623Z,30.93
2018-04-13T13:07:41.530Z,31.40
2018-04-13T13:10:09.075Z,31.20
2018-04-13T13:12:36.700Z,31.17
2018-04-13T13:15:05.944Z,28.83
2018-04-13T13:17:33.563Z,30.10
2018-04-13T13:20:01.107Z,30.30
2018-04-13T13:22:28.699Z,30.80
2018-04-13T13:24:56.250Z,29.70
2018-04-13T13:27:23.815Z,28.43
2018-04-13T13:30:05.755Z,28.97
2018-04-13T13:32:33.375Z,28.30
2018-04-13T13:37:49.998Z,28.83
2018-04-13T13:40:17.522Z,28.23
2018-04-13T13:42:45.036Z,28.23
2018-04-13T13:45:12.655Z,27.47
2018-04-13T15:01:48.161Z,27.97
2018-04-13T15:04:15.797Z,28.70
2018-04-13T15:06:44.313Z,25.80
2018-04-13T15:09:12.416Z,26.53
2018-04-13T15:11:39.949Z,29.43
2018-04-13T15:17:04.071Z,28.03
2018-04-13T15:22:21.451Z,27.83
2018-04-13T15:24:49.965Z,29.27
2018-04-13T15:27:19.178Z,29.40
2018-04-13T15:40:56.716Z,25.27
2018-04-13T15:43:24.268Z,24.13
2018-04-13T15:45:51.815Z,25.33
2018-04-13T15:54:06.780Z,26.77
2018-04-13T15:56:35.017Z,27.90
2018-04-13T15:59:02.668Z,26.40
2018-04-13T16:01:30.263Z,25.83
2018-04-13T16:03:57.837Z,26.00
2018-04-13T16:14:51.181Z,27.17
2018-04-13T16:17:18.855Z,24.47
2018-04-13T16:19:46.378Z,26.53
2018-04-13T16:22:14.956Z,24.30
2018-04-13T16:24:53.482Z,26.40
2018-04-13T16:30:17.036Z,24.93
2018-04-13T16:32:44.600Z,25.53
2018-04-13T16:35:12.152Z,23.77
2018-04-13T16:37:39.696Z,23.10
2018-04-13T16:40:09.053Z,23.60
2018-04-13T16:42:41.215Z,25.50
2018-04-13T16:45:12.206Z,22.40
2018-04-13T16:47:41.868Z,25.53
2018-04-13T16:50:10.082Z,25.03
2018-04-13T16:52:37.630Z,24.60
2018-04-13T16:55:05.189Z,24.27
2018-04-13T16:57:42.414Z,25.53
2018-04-13T17:02:53.895Z,24.73
2018-04-13T17:05:24.392Z,22.23
2018-04-13T17:07:52.877Z,25.40
2018-04-13T17:10:20.463Z,24.53
2018-04-13T17:12:48.042Z,23.57
2018-04-13T17:15:18.005Z,23.53
2018-04-13T17:17:45.834Z,24.03
2018-04-13T17:20:16.271Z,24.13
2018-04-13T17:22:46.524Z,22.67
2018-04-13T17:25:15.095Z,22.53
2018-04-13T17:27:42.628Z,21.73
2018-04-13T17:30:10.171Z,21.93
2018-04-13T17:32:42.517Z,22.93
2018-04-13T17:35:13.040Z,22.00
2018-04-13T17:37:46.040Z,24.63
2018-04-13T17:40:14.420Z,24.10
2018-04-13T17:42:43.091Z,24.90
2018-04-13T17:45:10.613Z,24.47
2018-04-13T17:47:38.176Z,21.60
2018-04-13T17:50:06.719Z,23.53
2018-04-13T17:52:37.483Z,24.03
2018-04-13T17:55:06.637Z,26.60
2018-04-13T17:57:35.339Z,28.00
2018-04-13T18:00:02.939Z,26.77
2018-04-13T18:02:30.512Z,26.93
2018-04-13T18:04:58.089Z,26.33
2018-04-13T18:07:32.894Z,27.67
2018-04-13T18:10:04.659Z,25.03
2018-04-13T18:12:36.887Z,30.00
2018-04-13T18:15:04.436Z,27.30
2018-04-13T18:17:31.985Z,27.53
2018-04-13T18:19:59.546Z,28.00
2018-04-13T18:22:27.115Z,28.57
2018-04-13T18:32:54.035Z,28.40
2018-04-13T18:35:21.563Z,28.53
2018-04-13T18:37:49.138Z,28.93
2018-04-13T18:40:16.910Z,30.00
2018-04-13T18:48:09.222Z,28.20
2018-04-13T18:50:36.900Z,27.43
2018-04-13T18:53:04.443Z,28.37
2018-04-13T18:55:32.073Z,28.37
2018-04-13T18:58:06.740Z,26.37
2018-04-13T19:00:40.438Z,27.93
2018-04-13T19:03:12.606Z,26.40
2018-04-13T19:05:44.628Z,28.53
2018-04-13T19:08:12.176Z,29.43
2018-04-13T19:10:39.739Z,30.03
2018-04-13T19:13:07.330Z,30.73
2018-04-13T19:15:37.968Z,30.17
2018-04-13T19:18:09.277Z,31.17
2018-04-13T19:20:40.421Z,31.50
2018-04-13T19:23:12.862Z,30.97
2018-04-13T19:25:40.493Z,31.67
2018-04-13T19:28:08.023Z,30.57
2018-04-13T19:30:35.576Z,30.93
2018-04-13T19:33:05.287Z,31.47
2018-04-13T19:35:36.808Z,34.70
2018-04-13T19:38:09.411Z,30.20
2018-04-13T19:40:37.994Z,32.10
2018-04-13T19:43:05.567Z,31.83
2018-04-13T19:45:33.137Z,31.97
2018-04-13T19:48:00.698Z,33.23
2018-04-13T19:50:32.118Z,35.33
2018-04-13T19:53:04.714Z,33.60
2018-04-13T19:58:09.120Z,35.33
2018-04-13T20:00:36.720Z,35.50
2018-04-13T20:03:04.272Z,33.43
2018-04-13T20:05:31.849Z,34.73
2018-04-13T20:10:33.431Z,31.90
2018-04-13T20:13:05.152Z,33.07
2018-04-13T20:15:32.758Z,33.77
2018-04-13T20:18:00.346Z,33.40
2018-04-13T20:20:27.874Z,34.87
2018-04-13T20:22:55.468Z,32.97
2018-04-13T20:25:25.272Z,31.27
2018-04-13T20:27:56.633Z,32.27
2018-04-13T20:30:25.298Z,33.47
2018-04-13T20:32:52.834Z,32.10
2018-04-13T20:35:20.365Z,32.13
2018-04-13T20:37:47.916Z,31.87
2018-04-13T20:40:15.523Z,32.40
2018-04-13T20:42:48.476Z,32.40
2018-04-13T20:45:20.424Z,33.33
2018-04-13T20:47:50.509Z,34.73
2018-04-13T20:50:19.115Z,33.57
2018-04-13T20:52:46.690Z,33.53
2018-04-13T20:55:14.265Z,33.30
2018-04-13T20:57:41.803Z,32.03
2018-04-13T21:00:10.125Z,32.90
2018-04-13T21:02:40.413Z,33.37
2018-04-13T21:05:12.315Z,33.83
2018-04-13T21:07:39.829Z,33.00
2018-04-13T21:10:07.387Z,32.83
2018-04-13T21:12:34.968Z,33.70
2018-04-13T21:15:02.533Z,32.57
2018-04-13T21:17:30.137Z,31.73
2018-04-13T21:20:00.406Z,32.50
2018-04-13T21:22:32.295Z,31.87
2018-04-13T21:25:02.475Z,33.23
2018-04-13T21:27:42.846Z,33.57
2018-04-13T21:30:10.456Z,32.63
2018-04-13T21:32:38.174Z,32.00
2018-04-13T21:35:06.155Z,32.13
2018-04-13T21:37:36.964Z,30.70
2018-04-13T21:40:10.039Z,30.30
2018-04-13T21:42:37.595Z,30.33
2018-04-13T21:45:05.096Z,28.93
2018-04-13T21:47:32.647Z,31.13
2018-04-13T21:50:00.207Z,29.87
2018-04-13T21:52:30.390Z,31.23
2018-04-13T21:54:58.117Z,32.57
2018-04-13T21:57:27.649Z,29.27
2018-04-13T21:59:55.183Z,29.07
2018-04-13T22:02:22.730Z,30.20
2018-04-13T22:04:50.266Z,29.60
2018-04-13T22:07:17.895Z,30.20
2018-04-13T22:09:46.227Z,29.57
2018-04-13T22:12:29.168Z,27.30
2018-04-13T22:15:01.646Z,27.73
2018-04-13T22:17:29.234Z,25.03
2018-04-13T22:19:56.792Z,25.67
2018-04-13T22:22:24.323Z,26.37
2018-04-13T22:24:51.887Z,26.57
2018-04-13T22:27:21.110Z,26.20
2018-04-13T22:29:50.464Z,27.43
2018-04-13T22:32:18.095Z,26.60
2018-04-13T22:34:45.666Z,27.77
2018-04-13T22:37:13.210Z,28.00
2018-04-13T22:39:40.775Z,26.83
2018-04-13T22:42:08.362Z,28.63
2018-04-13T22:44:38.495Z,28.17
2018-04-13T22:47:06.069Z,28.40
2018-04-13T22:49:36.496Z,28.57
2018-04-13T22:52:04.021Z,29.33
2018-04-13T22:54:31.506Z,28.77
2018-04-13T22:56:59.074Z,28.80
2018-04-13T22:59:26.734Z,30.30
2018-04-13T23:01:54.269Z,31.73
2018-04-13T23:04:21.931Z,30.20
2018-04-13T23:06:50.481Z,30.20
2018-04-13T23:09:18.048Z,29.23
2018-04-13T23:11:45.986Z,29.67
2018-04-13T23:14:13.538Z,28.50
2018-04-13T23:16:41.079Z,28.77
2018-04-13T23:19:09.585Z,27.97
2018-04-13T23:21:38.323Z,28.70
2018-04-13T23:24:05.888Z,28.10
2018-04-13T23:26:33.414Z,28.27
2018-04-13T23:29:00.991Z,29.60
2018-04-13T23:31:28.531Z,29.07
2018-04-13T23:33:56.263Z,29.20
2018-04-13T23:36:26.307Z,29.63
2018-04-13T23:38:54.569Z,27.60
2018-04-13T23:41:24.795Z,29.70
2018-04-13T23:43:53.290Z,29.73
2018-04-13T23:46:21.062Z,29.90
2018-04-13T23:48:48.631Z,28.13
2018-04-13T23:51:16.155Z,29.40
2018-04-13T23:53:46.108Z,30.03
2018-04-13T23:56:14.615Z,31.67
2018-04-13T23:58:46.372Z,31.87
